Aeroporto :
LOGIN :

Iscrizione | Disclaimer

   EN    FR    IT 

 










Sommario :    VFR   VFR Marginale   IFR   IFR Intensivo   IFR Molto Intensivo
Visibilità : 
Base nubi : 
>= 8 km
>= 3000ft
5 / 8 km
1000 / 3000 ft
1500m / 5 km
500 / 1000 ft
800 / 1500m
200 / 500 ft
< 800m
< 200 ft
Simboli :   Temporali  Nebbia  Neve Forte  Precipitazioni Forti  Vento > 20 kt
SIGMETs :   Varie  Temporali  Ghiacco  Turbolenza  Onda orograficha  Ceneri Vulcaniche






- Altitudine del aeroporto : 359 ft
- Codice IATA : BVA


LFOB - Beauvais

ULTIMO METAR :
  • 231430Z AUTO 12005KT 080V140 9999 OVC012 03/01 Q1034 BECMG OVC017

METARs OBSOLETI :
  • 231400Z AUTO 12006KT 9999 OVC012 03/01 Q1034 BECMG OVC017
  • 231330Z AUTO 14006KT 9999 OVC012 03/01 Q1034 BECMG OVC017
  • 231300Z AUTO 13008KT 9999 OVC011 03/01 Q1035 BECMG OVC017
  • 231230Z AUTO 12008KT 080V150 9999 OVC010 03/01 Q1035 BECMG OVC017
  • 231200Z AUTO 13007KT 9999 OVC010 04/02 Q1035 BECMG OVC017

TAF TAF LFOB
Valido dal 23 a 12 ore il 24 a 12 ore UTC


231100Z 2312/2412 10005KT 9999 OVC011
BECMG 2312/2315 OVC017
PROB30
TEMPO 2400/2402 OVC010
BECMG 2402/2404 NSC
PROB30 2405/2409 0300 FZFG VV///
ATIS : +33 3 44 11 49 28



MetMap, La meteo Aeronautica in un colpo d'occhio ! - Copyright ORBIFLY Dicembre 2007 - Disclaimer

ORBIFLY MET'MAP TEAM :

Programmazione e sviluppo : Alexandra Zaïnal
Concezione : Baudouin d'Aumeries
Aiuto per la programmazione : Marc-Olivier Méhu
Supporto tecnico e logistico : Manuel Goepfert
Aiuto per la traduzione : Arnaldo La Scala

Contatto : metmap@orbifly.com




FONTI E CREDITI :

   NOAA